Terminal Aerodrome Forecast
Issued by NWS Sioux Falls, SD

Home | Current Version | Previous Version | Text Only | Print | Product List | Glossary On
Versions: 1 2 3 4 5 6 7 8 9 10 11 12 13 14 15 16
028
FTUS43 KFSD 172327
TAFFSD
TAF
KFSD 172327Z 1800/1824 27006KT P6SM SCT025
     FM180300 18004KT P6SM BKN200
     FM180600 13011KT P6SM SCT110 BKN200
     FM180800 14018G27KT P6SM BKN100 WS012/18050KT
     FM181200 18018G27KT P6SM BKN130 WS012/19050KT
     FM181700 21015G23KT P6SM BKN200
     FM182100 22011KT P6SM BKN200=

USA.gov is the U.S. government's official web portal to all federal, state and local government web resources and services.